Time;durP1;ratioP1;P1;durP2;ratioP2;P2;SDS_P1;SDS_P2;PMS_P1;PMS_P2;Temp;Humidity;BMP_temperature;BMP_pressure;BME280_temperature;BME280_humidity;BME280_pressure;Samples;Min_cycle;Max_cycle;Signal;HPM_P1;HPM_P2
2021/12/24 00:01:10;;;;;;;3.05;1.17;;;18.60;48.60;;;;;;5114615;28;20160;-85
2021/12/24 00:03:36;;;;;;;2.35;1.50;;;18.60;48.60;;;;;;5097653;28;20743;-85
2021/12/24 00:06:03;;;;;;;4.45;1.20;;;18.60;48.60;;;;;;5114649;28;20203;-85
2021/12/24 00:08:31;;;;;;;1.63;1.05;;;18.60;48.60;;;;;;5114158;28;20156;-85
2021/12/24 00:10:59;;;;;;;2.40;1.00;;;18.60;48.70;;;;;;5114064;28;20179;-85
2021/12/24 00:13:26;;;;;;;1.35;1.15;;;18.60;48.70;;;;;;5114156;28;20148;-85
2021/12/24 00:16:06;;;;;;;1.33;0.90;;;18.60;48.70;;;;;;5114046;28;20210;-85
2021/12/24 00:18:45;;;;;;;3.47;1.10;;;18.60;48.70;;;;;;5114314;28;20166;-85
2021/12/24 00:37:19;;;;;;;2.58;1.17;;;18.60;48.70;;;;;;5114279;28;20231;-85
2021/12/24 00:39:56;;;;;;;3.88;1.40;;;18.60;48.60;;;;;;5097779;28;20164;-85
2021/12/24 00:42:23;;;;;;;2.35;0.90;;;18.50;48.60;;;;;;5114216;28;20156;-85
2021/12/24 00:44:48;;;;;;;2.63;1.20;;;18.50;48.70;;;;;;5114637;28;20224;-85
2021/12/24 00:47:16;;;;;;;2.55;1.20;;;18.50;48.60;;;;;;5097454;28;20199;-85
2021/12/24 00:49:43;;;;;;;2.08;1.20;;;18.50;49.40;;;;;;5113452;28;20194;-86
2021/12/24 00:52:33;;;;;;;1.35;1.08;;;18.50;48.50;;;;;;5097463;28;20160;-85
2021/12/24 00:55:03;;;;;;;1.77;1.27;;;18.50;48.40;;;;;;5098524;28;20707;-85
2021/12/24 00:57:29;;;;;;;1.88;1.00;;;18.50;48.60;;;;;;5113967;28;20616;-85
2021/12/24 00:59:55;;;;;;;2.45;1.33;;;18.50;48.60;;;;;;5115481;28;20249;-85
2021/12/24 01:02:21;;;;;;;1.77;1.25;;;18.50;48.30;;;;;;5117539;28;20634;-85
2021/12/24 01:04:46;;;;;;;2.15;1.20;;;18.50;48.50;;;;;;5117987;28;20242;-85
2021/12/24 01:07:13;;;;;;;2.35;1.20;;;18.50;48.50;;;;;;5117652;28;20715;-85
2021/12/24 01:09:40;;;;;;;2.28;1.17;;;18.50;48.60;;;;;;5100907;28;20164;-85
2021/12/24 01:12:06;;;;;;;1.55;1.10;;;18.50;48.40;;;;;;5117590;28;20191;-85
2021/12/24 01:14:31;;;;;;;2.53;1.30;;;18.50;48.50;;;;;;5117350;28;20213;-85
2021/12/24 01:17:19;;;;;;;3.42;1.10;;;18.50;48.60;;;;;;5100707;28;20616;-85
2021/12/24 01:19:47;;;;;;;1.92;0.98;;;18.50;48.60;;;;;;5117484;28;20167;-85
2021/12/24 01:25:08;;;;;;;2.88;1.15;;;18.50;48.40;;;;;;5120600;28;20148;-85
2021/12/24 01:27:57;;;;;;;3.08;1.25;;;18.50;48.60;;;;;;5122744;28;20188;-85
2021/12/24 01:37:52;;;;;;;1.65;1.15;;;18.50;48.50;;;;;;5122369;28;20649;-85
2021/12/24 01:38:49;;;;;;;1.35;1.00;;;18.50;48.60;;;;;;5123067;28;20210;-86
2021/12/24 01:42:40;;;;;;;2.08;0.82;;;18.50;48.70;;;;;;5122419;28;20259;-85
2021/12/24 01:44:02;;;;;;;1.92;1.20;;;18.50;48.50;;;;;;5122298;28;20183;-85
2021/12/24 01:46:28;;;;;;;2.25;1.20;;;18.40;48.40;;;;;;5122366;28;20215;-85
2021/12/24 01:48:54;;;;;;;3.22;1.05;;;18.50;48.30;;;;;;5122954;28;20159;-85
2021/12/24 01:51:19;;;;;;;1.45;0.98;;;18.50;48.60;;;;;;5122237;28;20168;-85
2021/12/24 01:53:45;;;;;;;3.53;1.30;;;18.40;48.70;;;;;;5105326;28;20160;-85
2021/12/24 01:56:12;;;;;;;1.73;0.90;;;18.40;48.50;;;;;;5104427;28;20205;-85
2021/12/24 01:58:40;;;;;;;2.80;1.10;;;18.40;48.50;;;;;;5122313;28;20164;-85
2021/12/24 02:01:08;;;;;;;1.65;1.10;;;18.50;48.60;;;;;;5138929;27;20218;-85
2021/12/24 02:03:34;;;;;;;1.50;1.10;;;18.50;48.60;;;;;;5137867;27;20684;-85
2021/12/24 02:06:02;;;;;;;1.83;1.05;;;18.50;48.50;;;;;;5121253;28;20187;-85
2021/12/24 02:08:28;;;;;;;4.00;1.02;;;18.40;48.60;;;;;;5121120;28;20153;-85
2021/12/24 02:10:58;;;;;;;2.08;1.27;;;18.40;48.80;;;;;;5121822;28;20163;-85
2021/12/24 02:13:25;;;;;;;1.52;1.02;;;18.50;48.60;;;;;;5138016;27;20555;-85
2021/12/24 02:16:13;;;;;;;2.72;1.33;;;18.40;48.70;;;;;;5138501;27;20180;-85
2021/12/24 02:29:22;;;;;;;2.70;1.25;;;18.40;48.40;;;;;;5121222;28;20159;-85
2021/12/24 02:31:50;;;;;;;2.25;1.15;;;18.50;48.60;;;;;;5120700;28;20520;-85
2021/12/24 02:34:18;;;;;;;2.95;1.23;;;18.40;48.60;;;;;;5120850;28;20179;-85
2021/12/24 02:36:44;;;;;;;2.35;1.17;;;18.50;48.60;;;;;;5120188;28;20220;-85
2021/12/24 02:39:10;;;;;;;2.53;1.05;;;18.40;48.60;;;;;;5120533;28;20683;-85
2021/12/24 02:41:37;;;;;;;2.80;1.17;;;18.40;48.30;;;;;;5120529;28;20163;-84
2021/12/24 02:44:03;;;;;;;1.77;1.25;;;18.40;48.60;;;;;;5120518;28;20167;-85
2021/12/24 02:46:37;;;;;;;2.55;1.20;;;18.40;48.50;;;;;;5119224;28;20223;-84
2021/12/24 02:49:10;;;;;;;1.15;0.98;;;18.50;48.60;;;;;;5136400;27;20155;-85
2021/12/24 02:54:23;;;;;;;1.70;1.25;;;18.40;49.20;;;;;;5133512;27;20254;-85
2021/12/24 02:56:52;;;;;;;2.58;1.13;;;18.40;48.40;;;;;;5135980;27;20211;-85
2021/12/24 02:59:26;;;;;;;1.48;1.05;;;18.40;48.40;;;;;;5120700;28;20191;-84
2021/12/24 03:01:52;;;;;;;2.20;1.30;;;18.40;48.40;;;;;;5153021;27;20144;-85
2021/12/24 03:04:17;;;;;;;3.25;1.20;;;18.40;48.40;;;;;;5154237;27;20175;-85
2021/12/24 03:06:49;;;;;;;1.90;1.35;;;18.40;48.50;;;;;;5153418;27;20199;-84
2021/12/24 03:09:16;;;;;;;1.33;1.10;;;18.40;48.30;;;;;;5136898;27;20642;-85
2021/12/24 03:11:43;;;;;;;1.30;0.95;;;18.40;48.40;;;;;;5154060;27;20618;-84
2021/12/24 03:14:09;;;;;;;1.52;0.98;;;18.40;48.50;;;;;;5136032;27;20152;-84
2021/12/24 03:16:36;;;;;;;1.45;1.00;;;18.40;48.50;;;;;;5153560;27;20178;-85
2021/12/24 03:19:02;;;;;;;1.70;0.90;;;18.40;48.60;;;;;;5153456;27;20152;-85
2021/12/24 03:21:34;;;;;;;3.53;1.00;;;18.40;48.60;;;;;;5136803;27;20193;-85
2021/12/24 03:26:47;;;;;;;2.08;1.05;;;18.40;48.40;;;;;;5134364;27;20656;-85
2021/12/24 03:29:15;;;;;;;1.48;0.98;;;18.40;48.50;;;;;;5137058;27;20243;-85
2021/12/24 03:31:47;;;;;;;1.33;1.08;;;18.40;48.60;;;;;;5153386;27;20671;-84
2021/12/24 03:34:17;;;;;;;1.40;1.15;;;18.40;48.50;;;;;;5137023;27;20190;-84
2021/12/24 03:36:44;;;;;;;1.63;1.10;;;18.30;49.20;;;;;;5153302;27;20148;-84
2021/12/24 03:39:11;;;;;;;0.93;0.90;;;18.30;48.50;;;;;;5153907;27;20159;-84
2021/12/24 03:41:37;;;;;;;1.40;0.80;;;18.30;48.50;;;;;;5136636;27;20639;-84
2021/12/24 03:44:06;;;;;;;3.22;1.20;;;18.30;48.50;;;;;;5153922;27;20172;-84
2021/12/24 03:46:42;;;;;;;1.83;1.15;;;18.30;48.60;;;;;;5119344;28;20224;-85
2021/12/24 03:49:18;;;;;;;1.98;1.02;;;18.30;48.50;;;;;;5104340;28;20215;-85
2021/12/24 03:51:54;;;;;;;1.55;1.10;;;18.30;48.30;;;;;;5103934;28;20163;-85
2021/12/24 03:56:56;;;;;;;1.40;0.98;;;18.40;48.40;;;;;;5105118;28;20162;-84
2021/12/24 03:59:23;;;;;;;2.60;1.08;;;18.30;48.40;;;;;;5103700;28;20196;-85
2021/12/24 04:01:54;;;;;;;1.55;1.17;;;18.30;48.50;;;;;;5102616;28;20194;-85
2021/12/24 04:04:20;;;;;;;1.30;1.20;;;18.30;48.30;;;;;;5103311;28;20164;-84
2021/12/24 04:06:48;;;;;;;1.50;0.90;;;18.30;48.40;;;;;;5102665;28;20211;-84
2021/12/24 04:09:14;;;;;;;2.30;0.90;;;18.40;48.50;;;;;;5103111;28;20154;-84
2021/12/24 04:11:40;;;;;;;1.40;0.90;;;18.30;48.30;;;;;;5102516;28;20152;-84
2021/12/24 04:14:06;;;;;;;2.05;1.20;;;18.30;48.30;;;;;;5103398;28;20160;-84
2021/12/24 04:16:32;;;;;;;3.00;1.05;;;18.30;48.60;;;;;;5103871;28;20210;-84
2021/12/24 04:19:21;;;;;;;2.63;1.05;;;18.30;48.50;;;;;;5103170;28;20168;-84
2021/12/24 04:27:11;;;;;;;1.27;1.10;;;18.40;48.20;;;;;;5104860;28;20199;-85
2021/12/24 04:29:42;;;;;;;1.10;1.00;;;18.40;47.90;;;;;;5102398;28;20191;-84
2021/12/24 04:32:13;;;;;;;1.95;1.00;;;18.50;47.60;;;;;;5102215;28;20167;-85
2021/12/24 04:34:43;;;;;;;1.63;1.10;;;18.50;47.60;;;;;;5104195;28;20626;-85
2021/12/24 04:37:53;;;;;;;2.22;1.13;;;18.50;47.30;;;;;;5107240;28;20172;-84
2021/12/24 04:51:00;;;;;;;2.22;0.98;;;18.50;47.20;;;;;;5108870;28;20543;-85
2021/12/24 05:01:33;;;;;;;1.23;0.88;;;18.60;46.80;;;;;;5106504;28;20160;-84
2021/12/24 05:04:03;;;;;;;2.25;1.00;;;18.70;46.90;;;;;;5107343;28;20254;-84
2021/12/24 05:06:35;;;;;;;2.75;0.95;;;18.70;46.90;;;;;;5105676;28;20199;-84
2021/12/24 05:09:08;;;;;;;1.70;1.00;;;18.60;46.70;;;;;;5106254;28;20163;-84
2021/12/24 05:11:34;;;;;;;1.48;0.85;;;18.70;46.60;;;;;;5106048;28;20532;-84
2021/12/24 05:13:59;;;;;;;2.22;1.00;;;18.70;46.40;;;;;;5103556;28;20156;-84
2021/12/24 05:16:38;;;;;;;1.35;0.77;;;18.70;46.60;;;;;;5100080;28;20623;-84
2021/12/24 05:21:33;;;;;;;1.27;0.90;;;18.70;46.50;;;;;;5102374;28;20512;-84
2021/12/24 05:21:52;;;;;;;1.63;0.80;;;18.70;46.40;;;;;;5103427;28;20679;-84
2021/12/24 05:24:20;;;;;;;2.47;0.90;;;18.80;46.50;;;;;;5100230;28;20168;-84
2021/12/24 05:26:49;;;;;;;1.45;0.85;;;18.80;46.20;;;;;;5100302;28;20187;-84
2021/12/24 05:29:15;;;;;;;0.73;0.60;;;18.80;46.40;;;;;;5099937;28;20168;-84
2021/12/24 05:31:43;;;;;;;2.63;0.98;;;18.80;46.20;;;;;;5083248;28;20258;-84
2021/12/24 05:34:10;;;;;;;1.13;0.80;;;18.80;46.00;;;;;;5099680;28;20155;-84
2021/12/24 05:36:37;;;;;;;2.20;0.80;;;18.80;46.10;;;;;;5100131;28;20156;-85
2021/12/24 05:39:04;;;;;;;2.38;0.73;;;18.80;46.20;;;;;;5100194;28;20178;-84
2021/12/24 05:41:30;;;;;;;2.30;1.10;;;18.80;46.00;;;;;;5099584;28;20168;-84
2021/12/24 05:43:56;;;;;;;1.63;1.02;;;18.90;46.00;;;;;;5099986;28;20186;-84
2021/12/24 05:46:21;;;;;;;2.00;1.00;;;18.90;46.00;;;;;;5098680;28;20216;-84
2021/12/24 05:48:47;;;;;;;1.92;0.73;;;18.80;45.70;;;;;;5099920;28;20161;-84
2021/12/24 05:51:14;;;;;;;1.30;0.80;;;18.80;45.80;;;;;;5099642;28;20568;-85
2021/12/24 05:53:41;;;;;;;1.48;1.02;;;18.90;45.70;;;;;;5099642;28;20156;-84
2021/12/24 05:56:08;;;;;;;1.17;0.85;;;18.90;45.80;;;;;;5099399;28;20537;-84
2021/12/24 05:58:34;;;;;;;2.08;0.80;;;18.90;45.80;;;;;;5099559;28;20156;-84
2021/12/24 06:01:01;;;;;;;1.90;0.93;;;18.90;45.70;;;;;;5099300;28;20167;-84
2021/12/24 06:03:27;;;;;;;1.40;0.75;;;18.80;45.80;;;;;;5118171;28;20199;-84
2021/12/24 06:05:55;;;;;;;1.02;0.80;;;18.90;45.60;;;;;;5099296;28;20188;-84
2021/12/24 06:08:21;;;;;;;1.65;0.90;;;18.90;45.70;;;;;;5099340;28;20148;-85
2021/12/24 06:10:46;;;;;;;1.70;1.10;;;18.80;45.50;;;;;;5099297;28;20145;-84
2021/12/24 06:13:12;;;;;;;2.05;0.63;;;18.90;45.60;;;;;;5099027;28;20156;-85
2021/12/24 06:15:44;;;;;;;1.67;0.98;;;18.90;45.40;;;;;;5099453;28;20156;-84
2021/12/24 06:18:18;;;;;;;0.82;0.73;;;18.90;45.40;;;;;;5099963;28;20156;-84
2021/12/24 06:20:44;;;;;;;0.73;0.63;;;18.90;45.40;;;;;;5100649;28;20201;-84
2021/12/24 06:23:12;;;;;;;1.20;0.70;;;18.90;45.30;;;;;;5099056;28;20507;-84
2021/12/24 06:25:39;;;;;;;1.85;0.60;;;18.90;45.10;;;;;;5099794;28;20160;-84
2021/12/24 06:28:04;;;;;;;1.52;0.80;;;18.90;45.30;;;;;;5098767;28;20144;-84
2021/12/24 06:30:31;;;;;;;1.33;0.73;;;18.90;45.20;;;;;;5099059;28;20165;-84
2021/12/24 06:32:57;;;;;;;1.15;0.75;;;18.90;45.30;;;;;;5098872;28;20235;-84
2021/12/24 06:35:24;;;;;;;1.45;0.80;;;19.00;45.10;;;;;;5098481;28;20156;-84
2021/12/24 06:37:53;;;;;;;1.65;0.73;;;19.00;45.20;;;;;;5098536;28;20148;-85
2021/12/24 06:40:19;;;;;;;1.20;0.90;;;18.80;45.10;;;;;;5098738;28;20242;-84
2021/12/24 06:42:45;;;;;;;1.33;0.88;;;18.90;45.20;;;;;;5098435;28;20194;-84
2021/12/24 06:45:11;;;;;;;1.15;0.70;;;18.90;45.00;;;;;;5098674;28;20247;-84
2021/12/24 06:47:37;;;;;;;1.25;0.80;;;18.90;45.00;;;;;;5098766;28;20578;-84
2021/12/24 06:50:04;;;;;;;0.93;0.70;;;19.00;44.90;;;;;;5098272;28;20202;-85
2021/12/24 06:52:31;;;;;;;2.15;0.60;;;18.90;45.00;;;;;;5098519;28;20494;-85
2021/12/24 06:54:57;;;;;;;1.33;0.80;;;18.90;45.00;;;;;;5098532;28;20156;-84
2021/12/24 06:57:25;;;;;;;0.80;0.80;;;18.90;44.90;;;;;;5098203;28;20185;-84
2021/12/24 06:59:50;;;;;;;1.13;0.70;;;19.00;44.80;;;;;;5098511;28;20159;-85
2021/12/24 07:02:17;;;;;;;1.27;0.70;;;18.90;44.90;;;;;;5098135;28;20160;-84
2021/12/24 07:04:43;;;;;;;0.90;0.70;;;18.90;44.80;;;;;;5115167;28;20258;-85
2021/12/24 07:07:08;;;;;;;3.15;0.80;;;19.00;44.70;;;;;;5098053;28;20612;-84
2021/12/24 07:09:34;;;;;;;1.05;0.77;;;19.00;44.80;;;;;;5098074;28;20153;-84
2021/12/24 07:12:00;;;;;;;1.67;0.75;;;19.00;44.60;;;;;;5098269;28;20149;-84
2021/12/24 07:14:25;;;;;;;0.98;0.80;;;19.00;44.70;;;;;;5097768;28;20239;-84
2021/12/24 07:16:52;;;;;;;1.02;0.80;;;19.00;44.50;;;;;;5098098;28;20214;-85
2021/12/24 07:19:18;;;;;;;1.58;0.70;;;19.00;44.60;;;;;;5097736;28;20156;-85
2021/12/24 07:21:44;;;;;;;1.30;0.75;;;19.00;44.50;;;;;;5098084;28;20160;-84
2021/12/24 07:24:10;;;;;;;0.90;0.60;;;19.00;44.70;;;;;;5098136;28;20253;-84
2021/12/24 07:26:37;;;;;;;0.80;0.68;;;19.00;44.60;;;;;;5097800;28;20645;-84
2021/12/24 07:29:03;;;;;;;1.77;0.70;;;19.00;44.60;;;;;;5098073;28;20268;-85
2021/12/24 07:31:29;;;;;;;1.17;0.70;;;19.00;44.60;;;;;;5097604;28;20556;-84
2021/12/24 07:33:56;;;;;;;0.90;0.80;;;19.00;44.30;;;;;;5097419;28;20159;-84
2021/12/24 07:36:22;;;;;;;0.80;0.80;;;19.00;44.60;;;;;;5097592;28;20168;-85
2021/12/24 07:38:48;;;;;;;0.68;0.63;;;19.00;44.50;;;;;;5097956;28;20239;-84
2021/12/24 07:41:15;;;;;;;0.85;0.70;;;19.00;44.40;;;;;;5097392;28;20149;-84
2021/12/24 07:43:40;;;;;;;1.08;0.77;;;19.00;44.40;;;;;;5097117;28;20175;-84
2021/12/24 07:46:06;;;;;;;1.00;0.80;;;19.00;44.30;;;;;;5096314;28;20300;-84
2021/12/24 07:48:43;;;;;;;1.05;0.63;;;19.00;44.30;;;;;;5096531;28;20164;-84
2021/12/24 07:53:47;;;;;;;0.82;0.60;;;18.90;44.20;;;;;;5098846;28;20155;-84
2021/12/24 07:56:13;;;;;;;1.67;0.90;;;19.00;44.20;;;;;;5097016;28;20156;-84
2021/12/24 07:58:42;;;;;;;1.10;0.70;;;19.00;44.00;;;;;;5080528;28;20160;-84
2021/12/24 08:01:07;;;;;;;1.08;0.70;;;19.00;44.10;;;;;;5097210;28;20217;-84
2021/12/24 08:03:33;;;;;;;1.02;0.77;;;19.00;44.70;;;;;;5096895;28;20164;-85
2021/12/24 08:05:58;;;;;;;0.60;0.60;;;19.00;44.00;;;;;;5097289;28;20214;-84
2021/12/24 08:08:24;;;;;;;0.60;0.60;;;19.00;43.90;;;;;;5097098;28;20156;-84
2021/12/24 08:10:51;;;;;;;1.40;0.60;;;19.00;43.90;;;;;;5096087;28;20683;-84
2021/12/24 08:13:19;;;;;;;1.33;0.90;;;19.00;44.70;;;;;;5097090;28;20233;-85
2021/12/24 08:15:48;;;;;;;0.95;0.77;;;18.90;43.90;;;;;;5096874;28;20164;-84
2021/12/24 08:18:14;;;;;;;0.85;0.85;;;18.90;43.80;;;;;;5097274;28;20156;-85
2021/12/24 08:20:39;;;;;;;0.82;0.80;;;19.00;43.90;;;;;;5096763;28;20160;-84
2021/12/24 08:23:05;;;;;;;0.90;0.70;;;19.00;43.90;;;;;;5096928;28;20156;-84
2021/12/24 08:25:31;;;;;;;0.98;0.63;;;19.00;43.90;;;;;;5079932;28;20160;-84
2021/12/24 08:27:56;;;;;;;1.02;0.60;;;19.00;43.90;;;;;;5096442;28;20222;-84
2021/12/24 08:30:22;;;;;;;1.17;0.60;;;18.90;43.80;;;;;;5096567;28;20168;-84
2021/12/24 08:32:49;;;;;;;0.70;0.70;;;19.00;43.70;;;;;;5097121;28;20550;-85
2021/12/24 08:35:17;;;;;;;0.65;0.60;;;19.00;43.70;;;;;;5096643;28;20231;-85
2021/12/24 08:37:44;;;;;;;0.75;0.70;;;19.00;43.80;;;;;;5096799;28;20210;-85
2021/12/24 08:40:12;;;;;;;0.73;0.70;;;19.00;43.80;;;;;;5096968;28;20166;-84
2021/12/24 08:42:39;;;;;;;0.90;0.65;;;19.00;43.60;;;;;;5096690;28;20157;-85
2021/12/24 08:45:06;;;;;;;1.10;0.50;;;19.00;43.60;;;;;;5083817;28;20227;-84
2021/12/24 08:47:32;;;;;;;0.73;0.70;;;19.00;43.70;;;;;;5113517;28;20685;-84
2021/12/24 08:49:58;;;;;;;1.65;0.90;;;19.00;43.80;;;;;;5147430;27;20171;-84
2021/12/24 08:52:24;;;;;;;3.35;0.60;;;19.00;43.60;;;;;;5130586;28;20160;-85
2021/12/24 08:54:49;;;;;;;1.33;0.60;;;19.00;43.50;;;;;;5130447;28;20163;-84
2021/12/24 08:57:17;;;;;;;1.00;0.63;;;19.00;43.60;;;;;;5130631;28;20165;-85
2021/12/24 08:59:43;;;;;;;0.80;0.60;;;19.00;43.60;;;;;;5147727;27;20160;-85
2021/12/24 09:02:10;;;;;;;1.17;0.73;;;19.00;43.60;;;;;;5147578;27;20164;-85
2021/12/24 09:04:36;;;;;;;0.70;0.60;;;19.00;43.50;;;;;;5113430;28;20213;-84
2021/12/24 09:07:03;;;;;;;1.00;0.85;;;19.00;43.50;;;;;;5147217;27;20195;-85
2021/12/24 09:09:29;;;;;;;0.73;0.60;;;19.00;43.50;;;;;;5130513;28;20156;-84
2021/12/24 09:11:56;;;;;;;1.65;0.60;;;19.00;43.30;;;;;;5147735;27;20166;-84
2021/12/24 09:14:22;;;;;;;1.25;0.65;;;18.90;43.30;;;;;;5147930;27;20144;-84
2021/12/24 09:16:49;;;;;;;0.63;0.60;;;19.00;43.40;;;;;;5130581;28;20237;-85
2021/12/24 09:19:20;;;;;;;0.70;0.45;;;19.00;43.30;;;;;;5113685;28;20168;-84
2021/12/24 09:21:51;;;;;;;1.45;0.60;;;19.00;43.30;;;;;;5114371;28;20557;-85
2021/12/24 09:24:19;;;;;;;0.95;0.50;;;19.00;43.30;;;;;;5134278;27;20171;-85
2021/12/24 09:26:45;;;;;;;0.60;0.60;;;19.00;43.20;;;;;;5151412;27;20200;-85
2021/12/24 09:29:13;;;;;;;0.70;0.60;;;19.00;43.50;;;;;;5133779;27;20156;-84
2021/12/24 09:31:39;;;;;;;0.60;0.55;;;19.00;43.30;;;;;;5134073;27;20167;-85
2021/12/24 09:34:06;;;;;;;0.60;0.50;;;19.00;43.30;;;;;;5133635;27;20152;-85
2021/12/24 09:36:33;;;;;;;0.82;0.60;;;19.00;43.30;;;;;;5150901;27;20300;-84
2021/12/24 09:39:01;;;;;;;0.65;0.60;;;19.00;43.20;;;;;;5150858;27;20644;-84
2021/12/24 09:41:27;;;;;;;0.82;0.82;;;19.00;43.10;;;;;;5150289;27;20557;-85
2021/12/24 09:43:56;;;;;;;0.57;0.50;;;19.00;43.20;;;;;;5133674;27;20167;-84
2021/12/24 09:46:22;;;;;;;0.70;0.60;;;19.00;43.20;;;;;;5153779;27;20218;-85
2021/12/24 09:48:48;;;;;;;0.68;0.50;;;19.00;43.20;;;;;;5119876;27;20235;-84
2021/12/24 09:51:16;;;;;;;0.88;0.60;;;19.00;43.20;;;;;;5119889;27;20175;-85
2021/12/24 09:53:46;;;;;;;1.08;0.80;;;19.00;43.20;;;;;;5119595;27;20219;-84
2021/12/24 09:56:11;;;;;;;0.90;0.60;;;19.10;43.20;;;;;;5119582;27;20171;-85
2021/12/24 09:58:37;;;;;;;1.02;0.60;;;19.00;42.90;;;;;;5119741;27;20164;-84
2021/12/24 10:01:04;;;;;;;0.73;0.63;;;19.00;42.90;;;;;;5119162;27;20163;-84
2021/12/24 10:03:31;;;;;;;0.90;0.60;;;19.00;43.10;;;;;;5119384;27;20667;-84
2021/12/24 10:06:02;;;;;;;1.25;0.77;;;19.00;43.00;;;;;;5119083;27;20162;-84
2021/12/24 10:08:28;;;;;;;1.27;0.88;;;19.00;42.90;;;;;;5136563;27;20246;-84
2021/12/24 10:11:04;;;;;;;1.83;0.68;;;19.10;42.90;;;;;;5119392;27;20155;-85
2021/12/24 10:13:36;;;;;;;0.50;0.50;;;19.10;42.70;;;;;;5119677;27;20147;-84
2021/12/24 10:16:07;;;;;;;0.85;0.68;;;19.10;42.70;;;;;;5119276;27;20606;-85
2021/12/24 10:18:40;;;;;;;0.73;0.70;;;19.10;42.70;;;;;;5136233;27;20163;-85
2021/12/24 10:21:11;;;;;;;0.77;0.52;;;19.10;42.70;;;;;;5119395;27;20158;-85
2021/12/24 10:23:40;;;;;;;0.63;0.63;;;19.10;42.70;;;;;;5119741;27;20155;-84
2021/12/24 10:26:19;;;;;;;0.50;0.50;;;19.00;42.60;;;;;;5119152;27;20648;-85
2021/12/24 10:28:56;;;;;;;0.57;0.43;;;19.10;42.70;;;;;;5119084;27;20155;-85
2021/12/24 10:31:26;;;;;;;0.85;0.63;;;19.10;42.60;;;;;;5119565;27;20183;-84
2021/12/24 10:34:14;;;;;;;0.77;0.60;;;19.10;42.60;;;;;;5118761;27;20204;-85
2021/12/24 10:37:08;;;;;;;0.73;0.50;;;19.00;42.40;;;;;;5119806;27;20148;-84
2021/12/24 10:39:45;;;;;;;0.80;0.50;;;19.10;42.40;;;;;;5118539;27;20163;-85
2021/12/24 10:42:15;;;;;;;0.50;0.50;;;19.10;42.50;;;;;;5118869;27;20163;-84
2021/12/24 10:44:41;;;;;;;0.82;0.73;;;19.10;42.50;;;;;;5115478;27;20220;-85
2021/12/24 10:47:12;;;;;;;1.67;0.60;;;19.10;42.50;;;;;;5098430;28;20175;-85
2021/12/24 10:49:54;;;;;;;0.73;0.55;;;19.10;42.40;;;;;;5098959;28;20174;-84
2021/12/24 10:52:42;;;;;;;1.08;0.60;;;19.00;42.30;;;;;;5099148;28;20198;-84
2021/12/24 10:55:09;;;;;;;0.50;0.47;;;19.10;43.00;;;;;;5100626;28;20176;-85
2021/12/24 10:57:37;;;;;;;1.35;0.75;;;19.20;42.20;;;;;;5098040;28;20148;-85
2021/12/24 11:00:18;;;;;;;0.55;0.55;;;19.10;42.20;;;;;;5098355;28;20160;-84
2021/12/24 11:02:51;;;;;;;0.82;0.68;;;19.10;42.20;;;;;;5097765;28;20259;-84
2021/12/24 11:05:39;;;;;;;0.43;0.43;;;19.10;42.10;;;;;;5098447;28;20166;-85
2021/12/24 11:08:09;;;;;;;0.60;0.60;;;19.10;42.10;;;;;;5097916;28;20661;-85
2021/12/24 11:10:38;;;;;;;0.63;0.50;;;19.10;42.10;;;;;;5097940;28;20149;-84
2021/12/24 11:13:11;;;;;;;0.75;0.70;;;19.20;42.00;;;;;;5115947;28;20152;-84
2021/12/24 11:15:39;;;;;;;0.50;0.40;;;19.10;42.10;;;;;;5097913;28;20151;-84
2021/12/24 11:18:16;;;;;;;0.82;0.70;;;19.10;41.70;;;;;;5097557;28;20171;-84
2021/12/24 11:20:41;;;;;;;0.68;0.57;;;19.10;42.00;;;;;;5097341;28;20228;-84
2021/12/24 11:23:10;;;;;;;0.70;0.52;;;19.10;41.90;;;;;;5097416;28;20223;-84
2021/12/24 11:25:38;;;;;;;0.65;0.60;;;19.20;42.10;;;;;;5097376;28;20218;-84
2021/12/24 11:28:04;;;;;;;1.00;0.50;;;19.20;41.80;;;;;;5097207;28;20184;-84
2021/12/24 11:30:31;;;;;;;1.15;0.70;;;19.10;41.90;;;;;;5097116;28;20214;-84
2021/12/24 11:32:57;;;;;;;0.60;0.50;;;19.10;41.80;;;;;;5097226;28;20154;-84
2021/12/24 11:35:27;;;;;;;1.65;0.50;;;19.10;42.00;;;;;;5097062;28;20149;-84
2021/12/24 11:37:56;;;;;;;0.52;0.52;;;19.10;41.70;;;;;;5097175;28;20186;-84
2021/12/24 11:40:24;;;;;;;0.90;0.55;;;19.10;41.60;;;;;;5096918;28;20168;-84
2021/12/24 11:42:55;;;;;;;0.50;0.50;;;19.10;41.40;;;;;;5096886;28;20164;-84
2021/12/24 11:45:22;;;;;;;0.65;0.60;;;19.10;41.60;;;;;;5104946;27;20575;-85
2021/12/24 11:47:50;;;;;;;0.98;0.60;;;19.20;41.60;;;;;;5100169;27;20210;-84
2021/12/24 11:50:18;;;;;;;1.27;0.50;;;19.10;41.90;;;;;;5100400;27;20159;-84
2021/12/24 11:52:45;;;;;;;0.60;0.57;;;19.10;41.50;;;;;;5117528;27;20200;-85
2021/12/24 11:55:12;;;;;;;0.65;0.50;;;19.10;41.70;;;;;;5100064;27;20174;-84
2021/12/24 11:57:49;;;;;;;0.60;0.50;;;19.10;41.70;;;;;;5117188;27;20671;-84
2021/12/24 12:00:17;;;;;;;1.17;0.60;;;19.10;41.20;;;;;;5117451;28;20154;-85
2021/12/24 12:02:45;;;;;;;0.52;0.50;;;19.10;41.40;;;;;;5116759;28;20160;-84
2021/12/24 12:05:14;;;;;;;0.50;0.50;;;19.10;41.50;;;;;;5117265;27;20152;-84
2021/12/24 12:07:40;;;;;;;0.50;0.50;;;19.10;41.30;;;;;;5116979;28;20255;-84
2021/12/24 12:10:10;;;;;;;0.47;0.47;;;19.10;41.50;;;;;;5100128;28;20666;-84
2021/12/24 12:12:37;;;;;;;0.50;0.50;;;19.10;41.40;;;;;;5133868;28;20620;-84
2021/12/24 12:15:28;;;;;;;0.50;0.50;;;19.10;41.40;;;;;;5117183;28;20617;-85
2021/12/24 12:17:55;;;;;;;0.93;0.80;;;19.10;41.20;;;;;;5116680;28;20253;-84
2021/12/24 12:20:44;;;;;;;0.60;0.50;;;19.10;41.20;;;;;;5116171;28;20161;-84
2021/12/24 12:23:17;;;;;;;0.45;0.43;;;19.10;41.20;;;;;;5117482;28;20519;-84
2021/12/24 12:25:43;;;;;;;0.50;0.50;;;19.10;41.20;;;;;;5117870;28;20164;-86
2021/12/24 12:28:14;;;;;;;0.50;0.40;;;19.20;41.40;;;;;;5117021;28;20170;-84
2021/12/24 12:30:49;;;;;;;0.47;0.47;;;19.10;41.40;;;;;;5117477;28;20166;-84
2021/12/24 12:33:18;;;;;;;1.02;0.70;;;19.20;41.40;;;;;;5116840;28;20208;-85
2021/12/24 12:35:54;;;;;;;0.55;0.45;;;19.10;41.30;;;;;;5116993;28;20162;-84
2021/12/24 12:38:26;;;;;;;1.02;0.60;;;19.20;41.40;;;;;;5117089;28;20159;-84
2021/12/24 12:40:52;;;;;;;0.80;0.77;;;19.10;41.20;;;;;;5100521;28;20606;-84
2021/12/24 12:43:19;;;;;;;1.50;0.60;;;19.10;41.10;;;;;;5099740;28;20160;-84
2021/12/24 12:45:50;;;;;;;0.60;0.57;;;19.10;41.30;;;;;;5104041;28;20681;-85
2021/12/24 12:48:23;;;;;;;0.85;0.50;;;19.10;41.60;;;;;;5096621;28;20160;-85
2021/12/24 12:50:53;;;;;;;0.50;0.50;;;19.10;41.10;;;;;;5097068;28;20670;-85
2021/12/24 12:53:26;;;;;;;0.60;0.60;;;19.10;40.80;;;;;;5096391;28;20174;-84
2021/12/24 12:56:22;;;;;;;0.57;0.45;;;19.10;41.20;;;;;;5097586;28;20239;-85
2021/12/24 12:59:07;;;;;;;0.40;0.40;;;19.10;41.40;;;;;;5100025;28;20148;-85
2021/12/24 13:01:55;;;;;;;0.73;0.40;;;19.20;41.30;;;;;;5100483;28;20246;-85
2021/12/24 13:04:26;;;;;;;0.75;0.70;;;19.10;41.20;;;;;;5100317;28;20246;-84
2021/12/24 13:06:53;;;;;;;0.75;0.52;;;19.20;41.20;;;;;;5099708;28;20530;-84
2021/12/24 13:09:32;;;;;;;0.65;0.57;;;19.10;41.40;;;;;;5099819;28;20231;-85
2021/12/24 13:11:59;;;;;;;0.90;0.60;;;19.10;41.00;;;;;;5101857;28;20182;-84
2021/12/24 13:14:26;;;;;;;0.45;0.45;;;19.10;40.80;;;;;;5099588;28;20602;-84
2021/12/24 13:25:10;;;;;;;0.75;0.50;;;19.10;41.00;;;;;;5101539;28;20144;-84
2021/12/24 13:27:39;;;;;;;0.57;0.52;;;19.20;41.00;;;;;;5099707;28;20211;-85
2021/12/24 13:30:17;;;;;;;0.50;0.50;;;19.10;40.80;;;;;;5099411;28;20675;-84
2021/12/24 13:32:48;;;;;;;0.60;0.60;;;19.10;40.70;;;;;;5099031;28;20177;-84
2021/12/24 13:35:16;;;;;;;0.60;0.60;;;19.20;40.90;;;;;;5099219;28;20598;-85
2021/12/24 13:37:45;;;;;;;0.50;0.50;;;19.20;40.90;;;;;;5099447;28;20168;-84
2021/12/24 13:40:15;;;;;;;0.50;0.50;;;19.10;40.90;;;;;;5100372;28;20598;-84
2021/12/24 13:42:47;;;;;;;0.45;0.45;;;19.10;40.70;;;;;;5099450;28;20163;-84
2021/12/24 13:45:13;;;;;;;0.70;0.70;;;19.10;40.90;;;;;;5099122;28;20219;-86
2021/12/24 13:47:57;;;;;;;0.47;0.47;;;19.10;40.90;;;;;;5099667;28;20204;-85
2021/12/24 13:54:30;;;;;;;0.70;0.50;;;19.10;40.80;;;;;;5102079;28;20241;-85
2021/12/24 13:55:54;;;;;;;0.60;0.60;;;19.10;40.80;;;;;;5101401;28;20155;-85
2021/12/24 13:58:21;;;;;;;0.52;0.50;;;19.10;40.70;;;;;;5098901;28;20152;-84
2021/12/24 14:00:49;;;;;;;0.47;0.47;;;19.20;40.70;;;;;;5099041;28;20159;-84
2021/12/24 14:03:14;;;;;;;0.63;0.63;;;19.20;40.70;;;;;;5098689;28;20156;-85
2021/12/24 14:05:47;;;;;;;1.48;0.50;;;19.10;40.70;;;;;;5099091;28;20572;-84
2021/12/24 14:08:16;;;;;;;0.63;0.60;;;19.10;40.70;;;;;;5098079;28;20166;-85
2021/12/24 14:10:45;;;;;;;0.75;0.68;;;19.10;40.60;;;;;;5099066;28;20160;-85
2021/12/24 14:13:19;;;;;;;0.70;0.70;;;19.00;40.70;;;;;;5099067;28;20180;-85
2021/12/24 14:16:08;;;;;;;0.60;0.60;;;19.20;40.70;;;;;;5099924;28;20144;-85
2021/12/24 14:24:17;;;;;;;0.50;0.50;;;19.20;40.70;;;;;;5116889;28;20235;-84
2021/12/24 14:26:54;;;;;;;1.45;0.60;;;19.10;40.40;;;;;;5098697;28;20214;-85